createdAt,value
2017-03-28T00:00:27.885Z,0
2017-03-28T00:01:42.463Z,0
2017-03-28T00:02:57.264Z,0
2017-03-28T00:04:11.740Z,0
2017-03-28T00:05:25.729Z,0
2017-03-28T00:06:40.002Z,0
2017-03-28T00:07:54.337Z,0
2017-03-28T00:09:09.215Z,0
2017-03-28T00:10:23.963Z,0
2017-03-28T00:11:38.874Z,0
2017-03-28T00:12:53.325Z,0
2017-03-28T00:14:08.119Z,0
2017-03-28T00:15:23.073Z,0
2017-03-28T00:16:37.617Z,0
2017-03-28T00:17:51.743Z,0
2017-03-28T00:19:06.544Z,0
2017-03-28T00:20:20.837Z,0
2017-03-28T00:21:36.537Z,0
2017-03-28T00:22:53.813Z,0
2017-03-28T00:24:14.208Z,0
2017-03-28T00:25:29.140Z,0
2017-03-28T00:26:45.824Z,0
2017-03-28T00:28:02.067Z,0
2017-03-28T00:29:18.854Z,0
2017-03-28T00:30:34.335Z,0
2017-03-28T00:31:48.981Z,0
2017-03-28T00:33:04.329Z,0
2017-03-28T00:34:19.490Z,0
2017-03-28T00:35:34.109Z,0
2017-03-28T00:36:49.482Z,0
2017-03-28T00:38:04.035Z,0
2017-03-28T00:39:18.817Z,0
2017-03-28T00:40:33.075Z,0
2017-03-28T00:41:47.259Z,0
2017-03-28T00:43:01.942Z,0
2017-03-28T00:44:16.919Z,0
2017-03-28T00:45:31.189Z,0
2017-03-28T00:46:45.331Z,0
2017-03-28T00:47:59.322Z,0
2017-03-28T00:49:13.426Z,0
2017-03-28T00:50:27.379Z,0
2017-03-28T00:51:41.756Z,0
2017-03-28T00:52:55.764Z,0
2017-03-28T00:54:09.871Z,0
2017-03-28T00:55:23.828Z,0
2017-03-28T00:56:38.530Z,0
2017-03-28T00:57:52.782Z,0
2017-03-28T00:59:06.928Z,0
2017-03-28T01:00:23.119Z,0
2017-03-28T01:01:37.215Z,0
2017-03-28T01:02:51.270Z,0
2017-03-28T01:04:05.721Z,0
2017-03-28T01:05:19.658Z,0
2017-03-28T01:06:33.870Z,0
2017-03-28T01:07:48.175Z,0
2017-03-28T01:09:02.381Z,0
2017-03-28T01:10:16.604Z,0
2017-03-28T01:11:31.111Z,0
2017-03-28T01:12:45.060Z,0
2017-03-28T01:13:59.201Z,0
2017-03-28T01:15:13.623Z,0
2017-03-28T01:16:28.341Z,0
2017-03-28T01:17:42.303Z,0
2017-03-28T01:18:56.820Z,0
2017-03-28T01:20:10.750Z,0
2017-03-28T01:21:24.862Z,0
2017-03-28T01:22:39.102Z,0
2017-03-28T01:23:53.582Z,0
2017-03-28T01:25:07.550Z,0
2017-03-28T01:26:21.657Z,0
2017-03-28T01:27:35.584Z,0
2017-03-28T01:28:50.113Z,0
2017-03-28T01:30:04.450Z,0
2017-03-28T01:31:18.928Z,0
2017-03-28T01:32:32.871Z,0
2017-03-28T01:33:47.307Z,0
2017-03-28T01:35:02.037Z,0
2017-03-28T01:36:16.183Z,0
2017-03-28T01:37:30.520Z,0
2017-03-28T01:38:44.758Z,0
2017-03-28T01:39:59.014Z,0
2017-03-28T01:41:13.482Z,0
2017-03-28T01:42:27.417Z,0
2017-03-28T01:43:41.544Z,0
2017-03-28T01:44:55.885Z,0
2017-03-28T01:46:10.345Z,0
2017-03-28T01:47:24.576Z,0
2017-03-28T01:48:38.703Z,0
2017-03-28T01:49:52.623Z,0
2017-03-28T01:51:06.767Z,0
2017-03-28T01:52:21.051Z,0
2017-03-28T01:53:35.436Z,0
2017-03-28T01:54:49.377Z,0
2017-03-28T01:56:03.952Z,0
2017-03-28T01:57:17.865Z,0
2017-03-28T01:58:31.967Z,0
2017-03-28T02:04:29.010Z,0
2017-03-28T02:05:43.313Z,0
2017-03-28T02:06:57.750Z,0
2017-03-28T02:08:12.065Z,0
2017-03-28T02:09:26.927Z,0
2017-03-28T02:10:41.171Z,0
2017-03-28T02:11:55.607Z,0
2017-03-28T02:13:10.044Z,0
2017-03-28T02:14:24.202Z,0
2017-03-28T02:15:38.526Z,0
2017-03-28T02:16:52.907Z,0
2017-03-28T02:18:07.768Z,0
2017-03-28T02:19:22.330Z,0
2017-03-28T02:20:38.860Z,0
2017-03-28T02:21:52.966Z,0
2017-03-28T02:23:07.288Z,0
2017-03-28T02:24:21.426Z,0
2017-03-28T02:25:35.432Z,0
2017-03-28T02:26:49.519Z,0
2017-03-28T02:28:09.705Z,0
2017-03-28T02:29:24.155Z,0
2017-03-28T02:30:38.412Z,0
2017-03-28T02:31:52.717Z,0
2017-03-28T02:33:06.642Z,0
2017-03-28T02:34:20.721Z,0
2017-03-28T02:35:35.718Z,0
2017-03-28T02:36:50.228Z,0
2017-03-28T02:38:04.643Z,0
2017-03-28T02:39:18.734Z,0
2017-03-28T02:40:33.051Z,0
2017-03-28T02:41:47.436Z,0
2017-03-28T02:43:02.094Z,0
2017-03-28T02:44:16.225Z,0
2017-03-28T02:45:30.574Z,0
2017-03-28T02:46:44.662Z,0
2017-03-28T02:47:58.930Z,0
2017-03-28T02:49:13.013Z,0
2017-03-28T02:50:27.086Z,0
2017-03-28T02:51:41.305Z,0
2017-03-28T02:52:55.604Z,0
2017-03-28T02:54:09.987Z,0
2017-03-28T02:55:23.994Z,0
2017-03-28T02:56:38.575Z,0
2017-03-28T02:57:52.500Z,0
2017-03-28T02:59:06.946Z,0
2017-03-28T03:00:21.871Z,0
2017-03-28T03:01:36.011Z,0
2017-03-28T03:02:50.075Z,0
2017-03-28T03:04:04.199Z,0
2017-03-28T03:05:18.225Z,0
2017-03-28T03:06:32.675Z,0
2017-03-28T03:07:46.628Z,0
2017-03-28T03:09:01.103Z,0
2017-03-28T03:10:15.060Z,0
2017-03-28T03:11:29.536Z,0
2017-03-28T03:12:43.749Z,0
2017-03-28T03:13:57.929Z,0
2017-03-28T03:15:11.866Z,0
2017-03-28T03:16:26.090Z,0
2017-03-28T03:17:40.153Z,0
2017-03-28T03:18:54.557Z,0
2017-03-28T03:20:08.843Z,0
2017-03-28T03:21:23.010Z,0
2017-03-28T03:22:37.496Z,0
2017-03-28T03:23:51.661Z,0
2017-03-28T03:25:05.900Z,0
2017-03-28T03:26:19.980Z,0
2017-03-28T03:27:33.974Z,0
2017-03-28T03:28:48.063Z,0
2017-03-28T03:30:02.253Z,0
2017-03-28T03:31:16.639Z,0
2017-03-28T03:32:30.629Z,0
2017-03-28T03:33:44.740Z,0
2017-03-28T03:34:58.688Z,0
2017-03-28T03:36:13.319Z,0
2017-03-28T03:37:29.834Z,0
2017-03-28T03:38:43.972Z,0
2017-03-28T03:39:57.877Z,0
2017-03-28T03:41:11.961Z,0
2017-03-28T03:42:26.310Z,0
2017-03-28T03:43:40.680Z,0
2017-03-28T03:44:54.732Z,0
2017-03-28T03:46:08.819Z,0
2017-03-28T03:47:22.740Z,0
2017-03-28T03:48:37.006Z,0
2017-03-28T03:49:51.230Z,0
2017-03-28T03:51:05.396Z,0
2017-03-28T03:52:19.699Z,0
2017-03-28T03:53:34.174Z,0
2017-03-28T03:54:48.561Z,0
2017-03-28T03:56:19.781Z,0
2017-03-28T03:57:33.816Z,0
2017-03-28T03:58:48.205Z,0
2017-03-28T04:00:02.327Z,0
2017-03-28T04:01:16.984Z,0
2017-03-28T04:02:45.126Z,0
2017-03-28T04:03:59.824Z,0
2017-03-28T04:05:14.136Z,0
2017-03-28T04:06:28.897Z,0
2017-03-28T04:07:43.373Z,0
2017-03-28T04:08:57.639Z,0
2017-03-28T04:10:12.224Z,0
2017-03-28T04:11:26.496Z,0
2017-03-28T04:12:41.006Z,0
2017-03-28T04:13:55.059Z,0
2017-03-28T04:15:09.741Z,0
2017-03-28T04:16:24.303Z,0
2017-03-28T04:17:38.973Z,0
2017-03-28T04:18:54.004Z,0
2017-03-28T04:20:08.929Z,0
2017-03-28T04:21:23.311Z,0
2017-03-28T04:22:37.459Z,0
2017-03-28T04:23:51.563Z,0
2017-03-28T04:25:05.679Z,0
2017-03-28T04:26:19.967Z,0
2017-03-28T04:27:34.709Z,0
2017-03-28T04:28:48.657Z,0
2017-03-28T04:30:02.910Z,0
2017-03-28T04:31:16.832Z,0
2017-03-28T04:32:30.926Z,0
2017-03-28T04:33:45.510Z,0
2017-03-28T04:34:59.655Z,0
2017-03-28T04:36:13.622Z,0
2017-03-28T04:37:28.093Z,0
2017-03-28T04:38:42.396Z,0
2017-03-28T04:39:57.531Z,0
2017-03-28T04:41:11.489Z,0
2017-03-28T04:42:42.750Z,0
2017-03-28T04:43:56.799Z,0
2017-03-28T04:45:11.171Z,0
2017-03-28T04:46:25.321Z,0
2017-03-28T04:47:39.953Z,0
2017-03-28T04:48:54.370Z,0
2017-03-28T04:50:08.366Z,0
2017-03-28T04:51:22.516Z,0
2017-03-28T04:52:36.586Z,0
2017-03-28T04:53:51.046Z,0
2017-03-28T04:55:07.292Z,0
2017-03-28T04:56:21.425Z,0
2017-03-28T04:57:35.701Z,0
2017-03-28T04:58:49.804Z,0
2017-03-28T05:00:03.797Z,0
2017-03-28T05:01:17.922Z,0
2017-03-28T05:02:31.901Z,0
2017-03-28T05:03:46.395Z,0
2017-03-28T05:05:01.321Z,5
2017-03-28T05:06:15.438Z,5
2017-03-28T05:07:29.420Z,5
2017-03-28T05:08:43.560Z,5
2017-03-28T05:09:57.863Z,5
2017-03-28T05:11:12.063Z,5
2017-03-28T05:12:26.480Z,5
2017-03-28T05:13:40.928Z,10
2017-03-28T05:14:55.571Z,10
2017-03-28T05:16:09.744Z,10
2017-03-28T05:17:23.767Z,15
2017-03-28T05:18:38.221Z,15
2017-03-28T05:19:52.158Z,15
2017-03-28T05:21:07.041Z,15
2017-03-28T05:22:21.038Z,20
2017-03-28T05:23:35.331Z,20
2017-03-28T05:24:49.258Z,20
2017-03-28T05:26:03.397Z,25
2017-03-28T05:27:18.091Z,25
2017-03-28T05:28:32.998Z,30
2017-03-28T05:29:47.613Z,30
2017-03-28T05:31:01.718Z,30
2017-03-28T05:32:15.821Z,30
2017-03-28T05:33:30.626Z,35
2017-03-28T05:34:46.421Z,35
2017-03-28T05:36:01.387Z,35
2017-03-28T05:37:15.480Z,35
2017-03-28T05:38:30.056Z,35
2017-03-28T05:39:44.203Z,40
2017-03-28T05:43:39.487Z,45
2017-03-28T05:44:53.445Z,45
2017-03-28T05:46:07.587Z,45
2017-03-28T05:47:21.735Z,45
2017-03-28T05:48:36.745Z,50
2017-03-28T05:49:51.867Z,50
2017-03-28T05:51:06.697Z,50
2017-03-28T05:52:20.651Z,55
2017-03-28T05:53:35.003Z,55
2017-03-28T05:54:49.569Z,55
2017-03-28T05:56:04.121Z,60
2017-03-28T05:57:18.073Z,60
2017-03-28T05:58:32.292Z,60
2017-03-28T05:59:46.954Z,60
2017-03-28T06:01:01.093Z,65
2017-03-28T06:02:15.030Z,65
2017-03-28T06:03:29.301Z,65
2017-03-28T06:04:43.699Z,70
2017-03-28T06:05:57.868Z,70
2017-03-28T06:07:12.156Z,70
2017-03-28T06:08:26.252Z,70
2017-03-28T06:09:40.584Z,75
2017-03-28T06:10:55.040Z,75
2017-03-28T06:12:09.249Z,75
2017-03-28T06:13:23.471Z,75
2017-03-28T06:14:39.729Z,80
2017-03-28T06:15:54.158Z,80
2017-03-28T06:17:08.796Z,80
2017-03-28T06:18:22.931Z,80
2017-03-28T06:19:37.033Z,85
2017-03-28T06:20:51.134Z,85
2017-03-28T06:22:05.537Z,85
2017-03-28T06:23:19.686Z,85
2017-03-28T06:24:33.734Z,85
2017-03-28T06:25:48.570Z,90
2017-03-28T06:27:02.919Z,90
2017-03-28T06:28:18.116Z,90
2017-03-28T06:29:32.110Z,90
2017-03-28T06:30:46.896Z,90
2017-03-28T06:32:01.452Z,95
2017-03-28T06:33:16.539Z,95
2017-03-28T06:34:30.925Z,95
2017-03-28T06:35:45.454Z,95
2017-03-28T06:37:00.206Z,95
2017-03-28T06:38:14.854Z,100
2017-03-28T06:39:29.153Z,100
2017-03-28T06:40:44.516Z,100
2017-03-28T06:42:05.109Z,100
2017-03-28T06:43:19.603Z,100
2017-03-28T06:44:34.679Z,100
2017-03-28T06:45:48.981Z,105
2017-03-28T06:47:02.933Z,105
2017-03-28T06:48:17.765Z,105
2017-03-28T06:49:32.912Z,105
2017-03-28T06:50:48.463Z,105
2017-03-28T06:52:03.512Z,105
2017-03-28T06:53:19.402Z,110
2017-03-28T06:54:34.511Z,110
2017-03-28T06:55:48.734Z,110
2017-03-28T06:57:02.759Z,110
2017-03-28T06:58:17.302Z,110
2017-03-28T06:59:31.361Z,110
2017-03-28T07:00:45.996Z,115
2017-03-28T07:01:59.935Z,115
2017-03-28T07:03:14.681Z,115
2017-03-28T07:04:29.392Z,115
2017-03-28T07:05:44.356Z,115
2017-03-28T07:06:58.387Z,115
2017-03-28T07:08:12.662Z,115
2017-03-28T07:09:26.653Z,115
2017-03-28T07:10:41.251Z,115
2017-03-28T07:11:55.964Z,120
2017-03-28T07:13:10.150Z,120
2017-03-28T07:14:24.156Z,120
2017-03-28T07:15:39.487Z,120
2017-03-28T07:16:53.838Z,120
2017-03-28T07:18:09.154Z,120
2017-03-28T07:19:23.675Z,120
2017-03-28T07:20:39.207Z,120
2017-03-28T07:21:53.675Z,120
2017-03-28T07:23:07.808Z,120
2017-03-28T07:24:22.836Z,125
2017-03-28T07:25:37.790Z,125
2017-03-28T07:26:52.253Z,125
2017-03-28T07:28:06.716Z,125
2017-03-28T07:29:20.718Z,125
2017-03-28T07:30:35.224Z,125
2017-03-28T07:31:51.642Z,125
2017-03-28T07:33:06.103Z,125
2017-03-28T07:34:20.056Z,125
2017-03-28T07:35:34.209Z,125
2017-03-28T07:36:48.600Z,125
2017-03-28T07:38:02.743Z,125
2017-03-28T07:39:16.684Z,125
2017-03-28T07:40:30.865Z,125
2017-03-28T07:41:45.211Z,130
2017-03-28T07:43:20.376Z,130
2017-03-28T07:44:34.421Z,130
2017-03-28T07:45:48.756Z,130
2017-03-28T07:47:02.918Z,130
2017-03-28T07:48:16.847Z,130
2017-03-28T07:49:40.553Z,130
2017-03-28T07:50:54.545Z,130
2017-03-28T07:52:08.753Z,130
2017-03-28T07:53:23.135Z,130
2017-03-28T07:54:37.290Z,130
2017-03-28T07:55:51.248Z,130
2017-03-28T07:57:17.510Z,130
2017-03-28T07:58:31.485Z,130
2017-03-28T07:59:45.923Z,130
2017-03-28T08:00:59.902Z,130
2017-03-28T08:02:14.101Z,130
2017-03-28T08:03:28.839Z,130
2017-03-28T08:04:43.424Z,130
2017-03-28T08:05:58.490Z,130
2017-03-28T08:07:12.831Z,130
2017-03-28T08:08:27.903Z,130
2017-03-28T08:09:42.772Z,130
2017-03-28T08:10:57.955Z,130
2017-03-28T08:12:12.916Z,130
2017-03-28T08:13:27.687Z,130
2017-03-28T08:14:42.681Z,130
2017-03-28T08:15:57.235Z,130
2017-03-28T08:17:12.699Z,130
2017-03-28T08:18:26.708Z,130
2017-03-28T08:19:41.326Z,130
2017-03-28T08:20:56.017Z,130
2017-03-28T08:22:10.723Z,130
2017-03-28T08:23:24.751Z,130
2017-03-28T08:24:39.264Z,130
2017-03-28T08:25:54.446Z,130
2017-03-28T08:27:08.599Z,130
2017-03-28T08:28:23.549Z,130
2017-03-28T08:29:38.459Z,135
2017-03-28T08:30:52.867Z,135
2017-03-28T08:32:07.439Z,135
2017-03-28T08:33:22.236Z,135
2017-03-28T08:34:37.253Z,130
2017-03-28T08:35:52.646Z,130
2017-03-28T08:37:07.336Z,130
2017-03-28T08:38:22.128Z,130
2017-03-28T08:39:36.677Z,130
2017-03-28T08:40:50.746Z,130
2017-03-28T08:42:05.661Z,130
2017-03-28T08:43:20.311Z,130
2017-03-28T08:44:34.969Z,130
2017-03-28T08:45:50.375Z,130
2017-03-28T08:47:25.967Z,130
2017-03-28T08:48:40.856Z,130
2017-03-28T08:49:58.813Z,130
2017-03-28T08:51:13.290Z,130
2017-03-28T08:52:27.273Z,130
2017-03-28T08:53:41.747Z,130
2017-03-28T08:54:55.769Z,130
2017-03-28T08:56:29.438Z,130
2017-03-28T08:57:43.832Z,130
2017-03-28T08:58:57.868Z,130
2017-03-28T09:00:12.305Z,130
2017-03-28T09:01:26.614Z,130
2017-03-28T09:02:41.409Z,130
2017-03-28T09:03:55.407Z,130
2017-03-28T09:05:09.665Z,130
2017-03-28T09:06:23.609Z,130
2017-03-28T09:07:38.103Z,135
2017-03-28T09:08:52.383Z,130
2017-03-28T09:10:06.473Z,130
2017-03-28T09:11:20.457Z,130
2017-03-28T09:12:34.568Z,130
2017-03-28T09:13:48.990Z,130
2017-03-28T09:15:03.729Z,130
2017-03-28T09:16:18.033Z,130
2017-03-28T09:17:32.495Z,130
2017-03-28T09:18:46.469Z,130
2017-03-28T09:20:01.022Z,130
2017-03-28T09:21:15.700Z,130
2017-03-28T09:22:30.237Z,130
2017-03-28T09:23:44.205Z,130
2017-03-28T09:25:19.560Z,130
2017-03-28T09:26:33.969Z,130
2017-03-28T09:27:48.601Z,130
2017-03-28T09:29:02.741Z,130
2017-03-28T09:30:16.786Z,130
2017-03-28T09:31:31.233Z,130
2017-03-28T09:32:45.541Z,130
2017-03-28T09:33:59.667Z,130
2017-03-28T09:35:13.679Z,135
2017-03-28T09:36:28.139Z,130
2017-03-28T09:37:42.770Z,130
2017-03-28T09:38:57.253Z,130
2017-03-28T09:40:11.343Z,130
2017-03-28T09:41:25.812Z,130
2017-03-28T09:42:39.788Z,130
2017-03-28T09:43:53.992Z,130
2017-03-28T09:45:08.006Z,130
2017-03-28T09:46:22.614Z,130
2017-03-28T09:47:37.054Z,130
2017-03-28T09:48:51.318Z,130
2017-03-28T09:50:06.038Z,130
2017-03-28T09:51:21.386Z,130
2017-03-28T09:52:35.836Z,130
2017-03-28T09:53:50.545Z,130
2017-03-28T09:55:04.547Z,130
2017-03-28T09:56:32.671Z,130
2017-03-28T09:57:47.692Z,130
2017-03-28T09:59:02.543Z,130
2017-03-28T10:00:17.984Z,130
2017-03-28T10:01:33.410Z,130
2017-03-28T10:02:48.509Z,130
2017-03-28T10:04:03.089Z,130
2017-03-28T10:05:17.814Z,130
2017-03-28T10:06:32.440Z,130
2017-03-28T10:07:50.037Z,125
2017-03-28T10:09:04.569Z,125
2017-03-28T10:10:19.995Z,125
2017-03-28T10:11:35.469Z,130
2017-03-28T10:12:49.893Z,125
2017-03-28T10:14:05.524Z,130
2017-03-28T10:15:20.455Z,125
2017-03-28T10:16:35.746Z,125
2017-03-28T10:17:50.150Z,125
2017-03-28T10:19:04.300Z,125
2017-03-28T10:20:21.582Z,125
2017-03-28T10:21:36.079Z,130
2017-03-28T10:22:50.077Z,125
2017-03-28T10:24:04.434Z,125
2017-03-28T10:25:18.445Z,125
2017-03-28T10:26:33.337Z,125
2017-03-28T10:27:48.331Z,125
2017-03-28T10:29:02.463Z,125
2017-03-28T10:30:17.264Z,125
2017-03-28T10:31:31.796Z,125
2017-03-28T10:32:46.068Z,125
2017-03-28T10:34:00.213Z,125
2017-03-28T10:35:14.533Z,125
2017-03-28T10:36:28.845Z,125
2017-03-28T10:37:43.207Z,125
2017-03-28T10:38:57.960Z,125
2017-03-28T10:40:12.374Z,125
2017-03-28T10:41:26.872Z,125
2017-03-28T10:42:41.602Z,125
2017-03-28T10:43:56.655Z,125
2017-03-28T10:45:11.343Z,125
2017-03-28T10:46:25.531Z,125
2017-03-28T10:47:39.564Z,125
2017-03-28T10:48:54.011Z,125
2017-03-28T10:50:08.416Z,125
2017-03-28T10:51:23.245Z,125
2017-03-28T10:52:37.671Z,125
2017-03-28T10:53:51.931Z,125
2017-03-28T10:55:07.223Z,125
2017-03-28T10:56:23.919Z,125
2017-03-28T10:57:46.697Z,125
2017-03-28T10:59:09.545Z,125
2017-03-28T11:00:29.749Z,125
2017-03-28T11:02:10.316Z,125
2017-03-28T11:03:47.598Z,125
2017-03-28T11:05:13.023Z,125
2017-03-28T11:06:35.004Z,120
2017-03-28T11:07:57.496Z,120
2017-03-28T11:09:13.987Z,120
2017-03-28T11:10:29.509Z,120
2017-03-28T11:11:44.465Z,120
2017-03-28T11:12:59.701Z,125
2017-03-28T11:14:14.401Z,125
2017-03-28T11:15:28.996Z,125
2017-03-28T11:16:43.448Z,125
2017-03-28T11:17:58.051Z,120
2017-03-28T11:19:12.809Z,120
2017-03-28T11:20:27.367Z,120
2017-03-28T11:21:41.693Z,125
2017-03-28T11:22:55.821Z,125
2017-03-28T11:24:10.150Z,125
2017-03-28T11:25:24.315Z,120
2017-03-28T11:26:40.837Z,120
2017-03-28T11:27:55.964Z,120
2017-03-28T11:29:10.386Z,120
2017-03-28T11:30:24.523Z,120
2017-03-28T11:31:38.490Z,120
2017-03-28T11:32:53.275Z,120
2017-03-28T11:34:07.467Z,120
2017-03-28T11:35:22.340Z,120
2017-03-28T11:36:36.343Z,120
2017-03-28T11:37:50.850Z,120
2017-03-28T11:39:05.522Z,120
2017-03-28T11:40:20.726Z,120
2017-03-28T11:41:34.716Z,120
2017-03-28T11:42:48.892Z,120
2017-03-28T11:44:05.947Z,120
2017-03-28T11:45:20.106Z,120
2017-03-28T11:46:34.067Z,120
2017-03-28T11:47:48.892Z,120
2017-03-28T11:49:03.566Z,120
2017-03-28T11:50:17.722Z,120
2017-03-28T11:51:31.973Z,120
2017-03-28T11:52:46.513Z,120
2017-03-28T11:54:00.801Z,120
2017-03-28T11:55:15.390Z,120
2017-03-28T11:56:29.358Z,120
2017-03-28T11:57:44.121Z,120
2017-03-28T11:58:58.699Z,120
2017-03-28T12:00:13.751Z,120
2017-03-28T12:01:27.751Z,120
2017-03-28T12:02:41.947Z,120
2017-03-28T12:03:56.202Z,120
2017-03-28T12:05:10.804Z,120
2017-03-28T12:06:24.802Z,120
2017-03-28T12:07:39.103Z,120
2017-03-28T12:08:53.249Z,120
2017-03-28T12:10:08.081Z,120
2017-03-28T12:11:22.156Z,120
2017-03-28T12:12:36.624Z,120
2017-03-28T12:13:50.626Z,120
2017-03-28T12:15:04.860Z,120
2017-03-28T12:16:19.154Z,120
2017-03-28T12:17:33.560Z,120
2017-03-28T12:18:47.853Z,120
2017-03-28T12:20:02.379Z,120
2017-03-28T12:21:16.783Z,120
2017-03-28T12:22:31.189Z,120
2017-03-28T12:23:45.691Z,120
2017-03-28T12:25:00.193Z,120
2017-03-28T12:26:14.273Z,120
2017-03-28T12:27:28.399Z,120
2017-03-28T12:28:42.684Z,120
2017-03-28T12:29:57.590Z,120
2017-03-28T12:31:11.631Z,120
2017-03-28T12:32:25.775Z,120
2017-03-28T12:33:40.791Z,120
2017-03-28T12:34:55.914Z,120
2017-03-28T12:36:10.529Z,120
2017-03-28T12:37:25.395Z,120
2017-03-28T12:38:39.364Z,120
2017-03-28T12:39:53.508Z,120
2017-03-28T12:41:08.528Z,120
2017-03-28T12:42:23.928Z,120
2017-03-28T12:43:41.245Z,120
2017-03-28T12:44:55.472Z,120
2017-03-28T12:46:10.419Z,120
2017-03-28T12:47:25.880Z,120
2017-03-28T12:48:40.744Z,120
2017-03-28T12:49:54.863Z,120
2017-03-28T12:51:08.889Z,120
2017-03-28T12:52:23.384Z,120
2017-03-28T12:53:37.662Z,120
2017-03-28T12:54:52.189Z,120
2017-03-28T12:56:07.442Z,120
2017-03-28T12:57:21.606Z,120
2017-03-28T12:58:35.945Z,120
2017-03-28T12:59:51.092Z,120
2017-03-28T13:01:05.993Z,120
2017-03-28T13:02:20.905Z,120
2017-03-28T13:03:35.580Z,120
2017-03-28T13:04:49.810Z,120
2017-03-28T13:06:05.150Z,120
2017-03-28T13:07:19.730Z,125
2017-03-28T13:08:33.947Z,120
2017-03-28T13:09:48.889Z,120
2017-03-28T13:11:03.905Z,120
2017-03-28T13:12:19.104Z,120
2017-03-28T13:13:33.309Z,125
2017-03-28T13:14:47.495Z,120
2017-03-28T13:16:02.161Z,125
2017-03-28T13:17:17.237Z,120
2017-03-28T13:18:38.489Z,120
2017-03-28T13:19:52.654Z,125
2017-03-28T13:21:07.362Z,120
2017-03-28T13:22:22.244Z,125
2017-03-28T13:23:36.972Z,125
2017-03-28T13:24:51.712Z,120
2017-03-28T13:26:05.829Z,120
2017-03-28T13:27:20.482Z,120
2017-03-28T13:28:34.804Z,120
2017-03-28T13:29:49.797Z,120
2017-03-28T13:31:04.867Z,120
2017-03-28T13:32:21.122Z,120
2017-03-28T13:33:35.221Z,120
2017-03-28T13:34:50.823Z,125
2017-03-28T13:36:05.834Z,125
2017-03-28T13:37:21.142Z,125
2017-03-28T13:38:36.212Z,125
2017-03-28T13:39:51.118Z,125
2017-03-28T13:41:05.445Z,125
2017-03-28T13:42:19.591Z,125
2017-03-28T13:43:34.371Z,125
2017-03-28T13:44:49.957Z,120
2017-03-28T13:46:05.649Z,120
2017-03-28T13:47:20.601Z,125
2017-03-28T13:48:35.629Z,120
2017-03-28T13:49:52.406Z,125
2017-03-28T13:51:07.750Z,125
2017-03-28T13:52:44.381Z,130
2017-03-28T13:54:50.838Z,125
2017-03-28T13:56:16.294Z,125
2017-03-28T13:57:31.708Z,125
2017-03-28T13:58:47.936Z,125
2017-03-28T14:00:03.817Z,125
2017-03-28T14:01:20.130Z,125
2017-03-28T14:02:38.558Z,125
2017-03-28T14:03:54.375Z,125
2017-03-28T14:05:09.562Z,125
2017-03-28T14:06:25.856Z,125
2017-03-28T14:07:41.418Z,125
2017-03-28T14:08:57.451Z,125
2017-03-28T14:10:14.150Z,125
2017-03-28T14:11:30.321Z,125
2017-03-28T14:12:46.734Z,125
2017-03-28T14:14:02.734Z,125
2017-03-28T14:15:17.288Z,125
2017-03-28T14:16:35.075Z,125
2017-03-28T14:17:50.328Z,125
2017-03-28T14:19:05.631Z,125
2017-03-28T14:20:21.180Z,125
2017-03-28T14:21:59.925Z,125
2017-03-28T14:23:15.405Z,125
2017-03-28T14:24:30.564Z,125
2017-03-28T14:25:45.686Z,125
2017-03-28T14:27:00.448Z,125
2017-03-28T14:28:15.235Z,125
2017-03-28T14:29:32.386Z,125
2017-03-28T14:30:49.052Z,125
2017-03-28T14:32:04.613Z,125
2017-03-28T14:33:20.068Z,125
2017-03-28T14:34:36.840Z,125
2017-03-28T14:35:52.168Z,125
2017-03-28T14:37:09.007Z,125
2017-03-28T14:38:24.693Z,125
2017-03-28T14:39:39.968Z,125
2017-03-28T14:41:10.324Z,125
2017-03-28T14:42:25.345Z,125
2017-03-28T14:43:39.929Z,125
2017-03-28T14:44:54.286Z,125
2017-03-28T14:46:10.237Z,125
2017-03-28T14:47:25.911Z,125
2017-03-28T14:48:40.994Z,125
2017-03-28T14:49:55.596Z,125
2017-03-28T14:51:10.723Z,125
2017-03-28T14:52:25.523Z,125
2017-03-28T14:53:41.295Z,125
2017-03-28T14:54:57.186Z,120
2017-03-28T14:56:11.697Z,120
2017-03-28T14:57:26.400Z,120
2017-03-28T14:58:41.492Z,120
2017-03-28T14:59:55.992Z,120
2017-03-28T15:01:10.638Z,120
2017-03-28T15:02:25.898Z,120
2017-03-28T15:03:41.804Z,120
2017-03-28T15:04:56.300Z,120
2017-03-28T15:06:11.413Z,115
2017-03-28T15:07:26.009Z,120
2017-03-28T15:08:42.299Z,115
2017-03-28T15:09:57.111Z,115
2017-03-28T15:11:11.681Z,115
2017-03-28T15:12:26.262Z,110
2017-03-28T15:13:41.398Z,105
2017-03-28T15:14:55.956Z,105
2017-03-28T15:16:11.594Z,105
2017-03-28T15:17:26.869Z,100
2017-03-28T15:18:41.535Z,100
2017-03-28T15:19:56.342Z,100
2017-03-28T15:21:20.677Z,100
2017-03-28T15:22:35.458Z,105
2017-03-28T15:23:50.927Z,105
2017-03-28T15:25:05.500Z,105
2017-03-28T15:26:20.032Z,100
2017-03-28T15:27:34.665Z,105
2017-03-28T15:28:48.990Z,110
2017-03-28T15:30:03.121Z,115
2017-03-28T15:31:17.757Z,120
2017-03-28T15:32:32.152Z,120
2017-03-28T15:33:46.618Z,125
2017-03-28T15:35:01.369Z,125
2017-03-28T15:36:15.894Z,120
2017-03-28T15:37:31.367Z,125
2017-03-28T15:38:45.764Z,120
2017-03-28T15:40:01.344Z,110
2017-03-28T15:41:15.950Z,110
2017-03-28T15:42:30.465Z,115
2017-03-28T15:43:45.176Z,115
2017-03-28T15:45:00.241Z,115
2017-03-28T15:46:14.218Z,110
2017-03-28T15:47:29.076Z,105
2017-03-28T15:48:43.861Z,105
2017-03-28T15:49:58.713Z,105
2017-03-28T15:51:13.154Z,105
2017-03-28T15:52:27.267Z,105
2017-03-28T15:53:42.623Z,100
2017-03-28T15:54:57.282Z,100
2017-03-28T15:56:12.019Z,100
2017-03-28T15:57:26.523Z,100
2017-03-28T15:58:41.541Z,95
2017-03-28T15:59:56.028Z,90
2017-03-28T16:01:11.730Z,90
2017-03-28T16:02:25.873Z,90
2017-03-28T16:03:40.913Z,85
2017-03-28T16:05:24.824Z,85
2017-03-28T16:06:40.539Z,80
2017-03-28T16:07:55.085Z,80
2017-03-28T16:09:12.613Z,75
2017-03-28T16:10:26.659Z,75
2017-03-28T16:11:43.230Z,75
2017-03-28T16:12:58.041Z,70
2017-03-28T16:14:14.374Z,70
2017-03-28T16:15:29.305Z,70
2017-03-28T16:16:45.800Z,65
2017-03-28T16:18:00.534Z,65
2017-03-28T16:19:15.214Z,65
2017-03-28T16:20:31.155Z,65
2017-03-28T16:21:46.358Z,65
2017-03-28T16:23:00.411Z,65
2017-03-28T16:24:15.031Z,70
2017-03-28T16:25:30.096Z,70
2017-03-28T16:26:44.693Z,70
2017-03-28T16:27:59.730Z,70
2017-03-28T16:32:59.601Z,65
2017-03-28T16:34:15.771Z,65
2017-03-28T16:35:50.468Z,60
2017-03-28T16:37:06.081Z,60
2017-03-28T16:38:21.553Z,60
2017-03-28T16:39:36.794Z,60
2017-03-28T16:40:51.815Z,60
2017-03-28T16:42:10.545Z,65
2017-03-28T16:43:32.098Z,65
2017-03-28T16:44:47.673Z,65
2017-03-28T16:46:02.910Z,65
2017-03-28T16:47:18.113Z,65
2017-03-28T16:48:37.648Z,60
2017-03-28T16:49:52.705Z,60
2017-03-28T16:51:07.683Z,60
2017-03-28T16:52:22.653Z,60
2017-03-28T16:53:37.063Z,60
2017-03-28T16:54:51.792Z,60
2017-03-28T16:56:06.850Z,60
2017-03-28T16:57:22.345Z,60
2017-03-28T16:58:37.010Z,60
2017-03-28T16:59:51.420Z,55
2017-03-28T17:01:05.451Z,55
2017-03-28T17:02:19.713Z,50
2017-03-28T17:03:34.524Z,50
2017-03-28T17:04:48.747Z,50
2017-03-28T17:06:03.307Z,45
2017-03-28T17:07:17.543Z,45
2017-03-28T17:08:33.612Z,45
2017-03-28T17:09:48.669Z,45
2017-03-28T17:11:09.499Z,40
2017-03-28T17:12:24.351Z,40
2017-03-28T17:14:04.240Z,40
2017-03-28T17:15:19.203Z,35
2017-03-28T17:16:34.274Z,35
2017-03-28T17:17:48.733Z,35
2017-03-28T17:19:03.588Z,30
2017-03-28T17:20:18.373Z,30
2017-03-28T17:21:33.119Z,30
2017-03-28T17:22:47.513Z,25
2017-03-28T17:24:02.221Z,25
2017-03-28T17:25:16.204Z,25
2017-03-28T17:26:31.703Z,25
2017-03-28T17:27:46.962Z,20
2017-03-28T17:29:02.558Z,20
2017-03-28T17:30:17.259Z,20
2017-03-28T17:31:32.779Z,20
2017-03-28T17:32:47.577Z,15
2017-03-28T17:34:02.365Z,15
2017-03-28T17:35:18.807Z,15
2017-03-28T17:36:34.611Z,15
2017-03-28T17:37:48.982Z,15
2017-03-28T17:39:04.615Z,10
2017-03-28T17:40:18.882Z,10
2017-03-28T17:41:34.418Z,10
2017-03-28T17:42:49.065Z,10
2017-03-28T17:44:03.406Z,5
2017-03-28T17:45:18.102Z,5
2017-03-28T17:46:33.419Z,5
2017-03-28T17:47:48.600Z,5
2017-03-28T17:49:04.719Z,5
2017-03-28T17:50:24.129Z,5
2017-03-28T17:51:40.268Z,0
2017-03-28T17:52:56.679Z,0
2017-03-28T17:54:11.361Z,0
2017-03-28T17:55:26.606Z,0